Time;durP1;ratioP1;P1;durP2;ratioP2;P2;SDS_P1;SDS_P2;PMS_P1;PMS_P2;Temp;Humidity;BMP_temperature;BMP_pressure;BME280_temperature;BME280_humidity;BME280_pressure;Samples;Min_cycle;Max_cycle;Signal;HPM_P1;HPM_P2
2023/05/15 00:00:02;;;;;;;62.80;35.83;;;;;;;;;;6242127;23;20495;-78
2023/05/15 00:02:28;;;;;;;61.13;34.65;;;;;;;;;;6243348;23;20780;-77
2023/05/15 00:04:54;;;;;;;64.63;35.40;;;;;;;;;;6244019;23;20835;-77
2023/05/15 00:07:21;;;;;;;60.22;35.22;;;;;;;;;;6248107;23;20415;-78
2023/05/15 00:09:47;;;;;;;62.58;35.75;;;;;;;;;;6245056;23;20700;-78
2023/05/15 00:12:13;;;;;;;62.95;36.53;;;;;;;;;;6246093;23;20771;-78
2023/05/15 00:14:39;;;;;;;63.13;36.63;;;;;;;;;;6220427;23;20452;-78
2023/05/15 00:17:05;;;;;;;65.93;36.00;;;;;;;;;;6252386;23;20847;-78
2023/05/15 00:19:31;;;;;;;81.70;36.20;;;;;;;;;;6253143;23;20366;-78
2023/05/15 00:21:57;;;;;;;77.03;36.47;;;;;;;;;;6247914;23;20373;-78
2023/05/15 00:24:23;;;;;;;72.22;36.10;;;;;;;;;;6246121;23;20418;-78
2023/05/15 00:26:49;;;;;;;81.55;36.45;;;;;;;;;;6245153;23;20362;-78
2023/05/15 00:29:15;;;;;;;74.43;37.20;;;;;;;;;;6220101;23;20362;-78
2023/05/15 00:31:41;;;;;;;70.82;37.42;;;;;;;;;;6245545;23;20839;-78
2023/05/15 00:34:07;;;;;;;84.00;38.58;;;;;;;;;;6245661;23;20361;-78
2023/05/15 00:36:34;;;;;;;77.88;38.97;;;;;;;;;;6243707;23;20412;-79
2023/05/15 00:39:00;;;;;;;82.45;40.15;;;;;;;;;;6245660;23;20398;-78
2023/05/15 00:41:27;;;;;;;90.95;39.85;;;;;;;;;;6244957;23;20400;-78
2023/05/15 00:43:54;;;;;;;77.95;38.92;;;10.60;99.90;;;;;;6247396;23;20474;-79
2023/05/15 00:46:21;;;;;;;96.85;40.25;;;;;;;;;;6246680;23;20408;-79
2023/05/15 00:48:49;;;;;;;109.30;40.05;;;;;;;;;;6247009;23;20366;-78
2023/05/15 00:51:16;;;;;;;100.93;39.92;;;10.50;99.90;;;;;;6246937;23;20464;-77
2023/05/15 00:53:43;;;;;;;72.05;37.30;;;;;;;;;;6246376;22;20407;-78
2023/05/15 00:56:10;;;;;;;73.03;36.47;;;;;;;;;;6244679;23;20389;-77
2023/05/15 00:58:37;;;;;;;70.53;37.50;;;;;;;;;;6244500;23;20800;-76
2023/05/15 01:01:03;;;;;;;123.00;38.67;;;;;;;;;;6243841;23;20405;-78
2023/05/15 01:03:30;;;;;;;66.40;35.47;;;;;;;;;;6219331;23;20424;-78
2023/05/15 01:05:56;;;;;;;70.72;35.85;;;;;;;;;;6244062;23;20372;-78
2023/05/15 01:08:22;;;;;;;62.95;34.15;;;;;;;;;;6243820;23;20449;-78
2023/05/15 01:10:50;;;;;;;118.95;36.92;;;10.30;99.90;;;;;;6243518;23;20397;-79
2023/05/15 01:13:16;;;;;;;69.53;36.08;;;;;;;;;;6218326;23;20382;-79
2023/05/15 01:15:42;;;;;;;70.03;36.72;;;9.80;99.90;;;;;;6244310;23;20384;-79
2023/05/15 01:18:08;;;;;;;81.38;35.67;;;;;;;;;;6245535;23;20363;-79
2023/05/15 01:20:40;;;;;;;73.82;36.35;;;;;;;;;;6245580;23;20366;-78
2023/05/15 01:23:33;;;;;;;63.78;36.05;;;10.10;99.90;;;;;;6244694;23;20372;-78
2023/05/15 01:26:24;;;;;;;65.15;35.13;;;10.30;99.90;;;;;;6218599;23;20374;-78
2023/05/15 01:29:14;;;;;;;64.07;35.85;;;;;;;;;;6243771;23;20370;-78
2023/05/15 01:31:41;;;;;;;56.72;33.65;;;;;;;;;;6206786;23;20708;-79
2023/05/15 01:34:09;;;;;;;64.60;35.55;;;;;;;;;;6242766;23;20480;-78
2023/05/15 01:36:58;;;;;;;62.50;35.45;;;10.30;99.90;;;;;;6218691;23;20366;-78
2023/05/15 01:39:27;;;;;;;61.92;35.58;;;10.20;99.90;;;;;;6243529;23;20370;-79
2023/05/15 01:41:59;;;;;;;65.90;36.50;;;10.10;99.90;;;;;;6218514;23;20373;-78
2023/05/15 01:44:28;;;;;;;65.85;36.28;;;10.20;99.90;;;;;;6218355;23;20376;-78
2023/05/15 01:46:57;;;;;;;62.90;36.15;;;9.80;99.90;;;;;;6242683;23;20428;-79
2023/05/15 01:49:25;;;;;;;77.97;37.22;;;;;;;;;;6219031;23;20369;-79
2023/05/15 01:52:09;;;;;;;76.05;37.95;;;10.30;99.90;;;;;;6244973;23;20366;-79
2023/05/15 01:54:35;;;;;;;72.43;38.95;;;;;;;;;;6219618;23;20400;-79
2023/05/15 01:57:02;;;;;;;75.43;39.35;;;10.10;99.90;;;;;;6243881;23;20362;-79
2023/05/15 01:59:29;;;;;;;78.30;38.55;;;;;;;;;;6219204;23;20362;-79
2023/05/15 02:01:56;;;;;;;71.68;37.75;;;10.40;99.90;;;;;;6244984;23;20362;-79
2023/05/15 02:04:23;;;;;;;73.85;38.70;;;10.00;99.90;;;;;;6219468;23;20716;-79
2023/05/15 02:06:52;;;;;;;64.70;36.20;;;10.20;99.90;;;;;;6193673;23;20407;-78
2023/05/15 02:09:19;;;;;;;68.03;36.83;;;;;;;;;;6244282;23;20437;-78
2023/05/15 02:11:45;;;;;;;61.75;35.38;;;;;;;;;;6243862;23;20358;-78
2023/05/15 02:14:13;;;;;;;64.60;36.42;;;10.30;99.90;;;;;;6242165;23;20378;-78
2023/05/15 02:16:39;;;;;;;66.00;34.80;;;;;;;;;;6217820;23;20460;-78
2023/05/15 02:19:06;;;;;;;76.82;37.15;;;;;;;;;;6244452;23;20394;-78
2023/05/15 02:21:32;;;;;;;67.03;35.47;;;;;;;;;;6244504;23;20764;-79
2023/05/15 02:23:58;;;;;;;65.10;33.83;;;;;;;;;;6243319;23;20392;-78
2023/05/15 02:26:47;;;;;;;100.22;37.53;;;10.20;99.90;;;;;;6218613;23;20692;-79
2023/05/15 02:29:21;;;;;;;70.45;36.58;;;10.30;99.90;;;;;;6217474;23;20370;-79
2023/05/15 02:31:57;;;;;;;70.18;37.28;;;;;;;;;;6243968;23;20373;-79
2023/05/15 02:34:29;;;;;;;69.47;36.40;;;;;;;;;;6243939;23;20354;-79
2023/05/15 02:36:57;;;;;;;95.73;34.50;;;;;;;;;;6243174;23;20416;-79
2023/05/15 02:39:23;;;;;;;67.10;32.95;;;;;;;;;;6217214;23;20377;-78
2023/05/15 02:41:51;;;;;;;150.73;34.88;;;;;;;;;;6243511;23;20358;-78
2023/05/15 02:44:17;;;;;;;173.00;35.40;;;;;;;;;;6243552;23;20368;-78
2023/05/15 02:46:44;;;;;;;254.00;39.75;;;;;;;;;;6218421;23;20461;-78
2023/05/15 02:49:11;;;;;;;126.15;34.80;;;;;;;;;;6218256;23;20354;-78
2023/05/15 02:51:37;;;;;;;126.57;35.25;;;;;;;;;;6243850;23;20390;-78
2023/05/15 02:54:03;;;;;;;189.88;38.03;;;;;;;;;;6217362;23;20485;-78
2023/05/15 02:56:29;;;;;;;163.30;36.22;;;;;;;;;;6243154;23;20397;-78
2023/05/15 02:58:55;;;;;;;165.98;35.78;;;;;;;;;;6242901;23;20362;-78
2023/05/15 03:01:22;;;;;;;122.57;33.88;;;;;;;;;;6218563;23;20401;-78
2023/05/15 03:03:48;;;;;;;129.45;35.42;;;;;;;;;;6243252;23;20370;-78
2023/05/15 03:06:14;;;;;;;90.20;34.55;;;;;;;;;;6193178;23;20397;-78
2023/05/15 03:08:40;;;;;;;91.00;36.78;;;;;;;;;;6243122;23;20687;-78
2023/05/15 03:11:06;;;;;;;76.78;36.53;;;;;;;;;;6217483;23;20709;-78
2023/05/15 03:13:32;;;;;;;80.63;37.63;;;;;;;;;;6217638;23;20406;-77
2023/05/15 03:15:58;;;;;;;74.90;36.85;;;;;;;;;;6243489;23;20370;-78
2023/05/15 03:18:24;;;;;;;85.00;38.67;;;;;;;;;;6243865;23;20397;-77
2023/05/15 03:20:51;;;;;;;100.80;39.60;;;9.30;99.90;;;;;;6242449;23;20365;-79
2023/05/15 03:23:17;;;;;;;67.40;35.78;;;;;;;;;;6217601;23;20370;-79
2023/05/15 03:25:43;;;;;;;62.60;33.67;;;;;;;;;;6241587;23;20424;-78
2023/05/15 03:28:10;;;;;;;63.28;34.42;;;;;;;;;;6243564;23;20398;-78
2023/05/15 03:30:36;;;;;;;72.40;34.97;;;;;;;;;;6243381;23;20386;-78
2023/05/15 03:33:02;;;;;;;62.95;34.80;;;;;;;;;;6243441;23;20773;-78
2023/05/15 03:35:31;;;;;;;64.80;35.00;;;9.30;99.90;;;;;;6243157;23;20362;-78
2023/05/15 03:37:57;;;;;;;66.65;36.20;;;;;;;;;;6243393;23;20759;-78
2023/05/15 03:40:23;;;;;;;63.92;35.20;;;;;;;;;;6242760;23;20385;-78
2023/05/15 03:42:52;;;;;;;52.77;33.33;;;;;;;;;;6243656;23;20424;-79
2023/05/15 03:45:18;;;;;;;51.25;33.05;;;;;;;;;;6218471;23;20843;-77
2023/05/15 03:47:44;;;;;;;54.63;33.42;;;;;;;;;;6242742;23;20366;-78
2023/05/15 03:50:10;;;;;;;56.33;34.88;;;;;;;;;;6217768;23;20390;-78
2023/05/15 03:52:36;;;;;;;55.00;33.72;;;;;;;;;;6242513;23;20923;-78
2023/05/15 03:55:03;;;;;;;56.50;34.15;;;;;;;;;;6240950;23;20370;-78
2023/05/15 03:57:30;;;;;;;55.15;35.17;;;;;;;;;;6242101;23;20369;-78
2023/05/15 03:59:57;;;;;;;55.00;34.40;;;;;;;;;;6217624;23;20365;-79
2023/05/15 04:02:23;;;;;;;51.47;32.80;;;;;;;;;;6216576;23;20373;-78
2023/05/15 04:04:50;;;;;;;50.92;33.00;;;;;;;;;;6242371;23;20427;-77
2023/05/15 04:07:16;;;;;;;49.78;33.22;;;;;;;;;;6216958;23;20376;-76
2023/05/15 04:09:42;;;;;;;48.35;30.80;;;;;;;;;;6243651;23;20476;-77
2023/05/15 04:12:08;;;;;;;48.75;31.67;;;;;;;;;;6243791;23;20362;-78
2023/05/15 04:14:34;;;;;;;50.05;32.60;;;;;;;;;;6241593;23;20388;-78
2023/05/15 04:17:00;;;;;;;52.03;31.48;;;;;;;;;;6218123;23;20362;-78
2023/05/15 04:19:27;;;;;;;50.70;32.33;;;;;;;;;;6242473;23;20413;-77
2023/05/15 04:21:53;;;;;;;54.03;32.92;;;;;;;;;;6241416;23;20680;-78
2023/05/15 04:24:19;;;;;;;48.50;31.45;;;;;;;;;;6242340;23;20854;-78
2023/05/15 04:26:45;;;;;;;46.88;31.73;;;;;;;;;;6217374;23;20858;-78
2023/05/15 04:29:11;;;;;;;49.15;30.73;;;;;;;;;;6216756;23;20369;-80
2023/05/15 04:31:37;;;;;;;44.90;30.42;;;;;;;;;;6242220;23;20930;-79
2023/05/15 04:34:04;;;;;;;44.60;30.03;;;;;;;;;;6216473;23;20365;-76
2023/05/15 04:36:30;;;;;;;47.58;30.58;;;;;;;;;;6240793;23;20365;-78
2023/05/15 04:38:56;;;;;;;45.92;29.98;;;;;;;;;;6242880;23;20851;-77
2023/05/15 04:41:22;;;;;;;47.10;29.53;;;;;;;;;;6217543;23;20461;-77
2023/05/15 04:43:48;;;;;;;44.22;30.90;;;;;;;;;;6242385;23;20366;-77
2023/05/15 04:46:15;;;;;;;43.33;29.40;;;;;;;;;;6242403;23;20377;-79
2023/05/15 04:48:41;;;;;;;39.97;28.63;;;;;;;;;;6215947;23;20881;-79
2023/05/15 04:51:07;;;;;;;39.30;28.45;;;;;;;;;;6217940;23;20397;-79
2023/05/15 04:53:33;;;;;;;41.15;28.75;;;;;;;;;;6244311;23;20362;-78
2023/05/15 04:55:59;;;;;;;39.65;28.08;;;;;;;;;;6218973;23;20361;-77
2023/05/15 04:58:25;;;;;;;40.78;28.33;;;;;;;;;;6244034;23;20374;-78
2023/05/15 05:00:51;;;;;;;38.80;26.88;;;;;;;;;;6243841;23;20601;-78
2023/05/15 05:03:17;;;;;;;35.45;24.83;;;;;;;;;;6218106;23;20839;-79
2023/05/15 05:05:43;;;;;;;37.13;26.73;;;;;;;;;;6243179;23;20405;-79
2023/05/15 05:08:09;;;;;;;37.72;27.88;;;;;;;;;;6244417;23;20424;-77
2023/05/15 05:10:35;;;;;;;37.00;26.58;;;;;;;;;;6243757;23;20868;-77
2023/05/15 05:13:01;;;;;;;38.83;26.52;;;;;;;;;;6242948;23;20374;-78
2023/05/15 05:15:28;;;;;;;36.85;27.25;;;;;;;;;;6242678;23;20400;-78
2023/05/15 05:17:54;;;;;;;34.80;26.73;;;;;;;;;;6218573;23;20875;-79
2023/05/15 05:20:20;;;;;;;34.10;25.75;;;;;;;;;;6218910;23;20376;-78
2023/05/15 05:22:46;;;;;;;33.55;25.40;;;;;;;;;;6244011;23;20727;-78
2023/05/15 05:25:12;;;;;;;33.83;25.90;;;;;;;;;;6242779;23;20366;-78
2023/05/15 05:27:38;;;;;;;33.80;25.20;;;;;;;;;;6219689;23;20374;-78
2023/05/15 05:30:05;;;;;;;36.22;26.30;;;;;;;;;;6243749;23;20386;-78
2023/05/15 05:32:31;;;;;;;31.98;25.80;;;;;;;;;;6245070;23;20374;-77
2023/05/15 05:34:57;;;;;;;34.72;25.23;;;;;;;;;;6245383;23;20369;-79
2023/05/15 05:37:23;;;;;;;31.75;24.30;;;;;;;;;;6244637;23;20366;-79
2023/05/15 05:39:49;;;;;;;31.00;23.80;;;;;;;;;;6219576;23;20366;-79
2023/05/15 05:42:15;;;;;;;30.92;24.70;;;;;;;;;;6219854;23;20373;-78
2023/05/15 05:44:41;;;;;;;31.50;25.27;;;;;;;;;;6243745;23;20384;-79
2023/05/15 05:47:07;;;;;;;36.03;25.05;;;;;;;;;;6219651;23;20748;-77
2023/05/15 05:49:33;;;;;;;31.20;24.90;;;;;;;;;;6244705;23;20735;-79
2023/05/15 05:52:05;;;;;;;28.80;22.95;;;;;;;;;;6193912;23;20368;-76
2023/05/15 05:54:31;;;;;;;31.43;24.20;;;;;;;;;;6218632;23;20458;-78
2023/05/15 05:56:57;;;;;;;32.97;24.80;;;;;;;;;;6219452;23;20368;-78
2023/05/15 05:59:23;;;;;;;31.33;25.13;;;;;;;;;;6218739;23;20392;-77
2023/05/15 06:01:49;;;;;;;33.58;25.70;;;;;;;;;;6242173;23;20863;-78
2023/05/15 06:04:15;;;;;;;32.35;24.88;;;;;;;;;;6218440;23;20366;-77
2023/05/15 06:06:41;;;;;;;32.75;25.27;;;;;;;;;;6219040;23;20406;-78
2023/05/15 06:09:08;;;;;;;30.60;24.90;;;;;;;;;;6243624;23;20354;-77
2023/05/15 06:11:34;;;;;;;33.08;25.42;;;;;;;;;;6218724;23;20386;-77
2023/05/15 06:14:00;;;;;;;32.33;24.77;;;;;;;;;;6218154;23;20389;-77
2023/05/15 06:16:26;;;;;;;30.33;23.98;;;;;;;;;;6243207;23;20405;-78
2023/05/15 06:18:52;;;;;;;32.20;25.13;;;;;;;;;;6219253;23;20492;-78
2023/05/15 06:21:18;;;;;;;32.58;24.77;;;;;;;;;;6218488;23;20756;-77
2023/05/15 06:23:44;;;;;;;30.13;24.77;;;;;;;;;;6218127;23;20461;-77
2023/05/15 06:26:10;;;;;;;34.10;26.03;;;;;;;;;;6240558;23;20377;-78
2023/05/15 06:28:36;;;;;;;29.17;23.27;;;;;;;;;;6216979;23;20521;-78
2023/05/15 06:31:02;;;;;;;31.13;24.05;;;;;;;;;;6241924;23;20904;-77
2023/05/15 06:33:28;;;;;;;31.65;24.83;;;;;;;;;;6242902;23;20362;-77
2023/05/15 06:35:55;;;;;;;30.60;24.40;;;;;;;;;;6216134;23;20684;-75
2023/05/15 06:38:21;;;;;;;31.35;22.83;;;;;;;;;;6190558;23;20471;-77
2023/05/15 06:40:47;;;;;;;27.42;21.95;;;;;;;;;;6243122;23;20378;-77
2023/05/15 06:43:13;;;;;;;32.33;24.58;;;;;;;;;;6241334;23;20400;-78
2023/05/15 06:45:39;;;;;;;28.73;23.30;;;;;;;;;;6216201;23;20464;-76
2023/05/15 06:48:05;;;;;;;29.98;23.02;;;;;;;;;;6241087;23;20405;-78
2023/05/15 06:50:31;;;;;;;28.25;22.20;;;;;;;;;;6240320;23;20390;-76
2023/05/15 06:52:58;;;;;;;29.60;21.80;;;;;;;;;;6240019;23;20366;-76
2023/05/15 06:55:24;;;;;;;26.67;21.20;;;;;;;;;;6212467;23;20389;-77
2023/05/15 06:57:50;;;;;;;27.42;21.75;;;;;;;;;;6240876;23;20452;-77
2023/05/15 07:00:16;;;;;;;25.58;21.42;;;;;;;;;;6241262;23;20444;-75
2023/05/15 07:02:42;;;;;;;26.90;21.70;;;;;;;;;;6239823;23;20377;-75
2023/05/15 07:05:09;;;;;;;27.00;21.93;;;;;;;;;;6214347;23;20447;-75
2023/05/15 07:07:36;;;;;;;29.27;22.40;;;;;;;;;;6238445;23;20906;-75
2023/05/15 07:10:02;;;;;;;28.30;22.50;;;;;;;;;;6241022;23;20386;-76
2023/05/15 07:12:28;;;;;;;28.13;21.75;;;;;;;;;;6188361;23;20377;-76
2023/05/15 07:14:54;;;;;;;25.80;21.33;;;;;;;;;;6215315;23;20468;-76
2023/05/15 07:17:20;;;;;;;27.98;19.98;;;;;;;;;;6240238;23;20361;-76
2023/05/15 07:19:46;;;;;;;25.92;20.48;;;12.50;99.90;;;;;;6241744;23;20362;-76
2023/05/15 07:22:12;;;;;;;25.77;20.17;;;;;;;;;;6215992;23;20366;-75
2023/05/15 07:24:38;;;;;;;26.05;19.17;;;;;;;;;;6241853;23;20369;-76
2023/05/15 07:27:04;;;;;;;24.60;18.80;;;;;;;;;;6217055;23;20368;-77
2023/05/15 07:29:30;;;;;;;22.80;18.60;;;;;;;;;;6242964;23;20389;-77
2023/05/15 07:31:57;;;;;;;22.88;17.45;;;;;;;;;;6240652;23;20366;-77
2023/05/15 07:34:23;;;;;;;22.70;17.75;;;;;;;;;;6214944;23;20369;-77
2023/05/15 07:36:49;;;;;;;23.08;18.35;;;;;;;;;;6214857;23;20366;-77
2023/05/15 07:39:15;;;;;;;24.70;18.88;;;;;;;;;;6241488;23;20400;-78
2023/05/15 07:41:41;;;;;;;25.13;18.83;;;;;;;;;;6217945;23;20370;-76
2023/05/15 07:44:07;;;;;;;22.05;18.38;;;;;;;;;;6216676;23;20828;-75
2023/05/15 07:46:34;;;;;;;23.08;18.75;;;;;;;;;;6242323;23;20378;-76
2023/05/15 07:49:00;;;;;;;22.45;18.42;;;;;;;;;;6239620;23;20370;-75
2023/05/15 07:51:26;;;;;;;22.52;17.92;;;;;;;;;;6215354;23;20824;-74
2023/05/15 07:53:53;;;;;;;21.70;17.60;;;;;;;;;;6186590;23;20370;-75
2023/05/15 07:56:20;;;;;;;21.42;16.63;;;;;;;;;;6238711;23;20749;-75
2023/05/15 07:58:46;;;;;;;22.75;18.08;;;;;;;;;;6209453;23;20362;-76
2023/05/15 08:01:12;;;;;;;21.27;16.60;;;;;;;;;;6237800;23;20366;-76
2023/05/15 08:03:38;;;;;;;21.58;17.65;;;;;;;;;;6215658;23;20378;-77
2023/05/15 08:06:06;;;;;;;21.67;17.75;;;;;;;;;;6238854;23;20370;-76
2023/05/15 08:08:32;;;;;;;23.20;17.10;;;;;;;;;;6240216;23;20610;-76
2023/05/15 08:10:58;;;;;;;21.40;16.85;;;;;;;;;;6216886;23;20397;-76
2023/05/15 08:13:24;;;;;;;20.07;15.83;;;;;;;;;;6216042;23;20382;-75
2023/05/15 08:15:50;;;;;;;19.05;15.00;;;;;;;;;;6215820;23;20385;-76
2023/05/15 08:18:16;;;;;;;20.85;15.40;;;;;;;;;;6242437;23;20362;-76
2023/05/15 08:20:42;;;;;;;20.90;15.23;;;;;;;;;;6240086;23;20374;-76
2023/05/15 08:23:08;;;;;;;16.67;14.07;;;;;;;;;;6190178;23;20366;-76
2023/05/15 08:25:35;;;;;;;19.73;15.00;;;;;;;;;;6242922;23;20366;-76
2023/05/15 08:28:01;;;;;;;17.77;12.45;;;;;;;;;;6243000;23;21021;-77
2023/05/15 08:30:27;;;;;;;17.67;13.60;;;;;;;;;;6242966;23;20415;-77
2023/05/15 08:32:53;;;;;;;16.67;13.15;;;;;;;;;;6190548;23;20903;-76
2023/05/15 08:35:19;;;;;;;14.60;12.73;;;;;;;;;;6216296;23;20369;-76
2023/05/15 08:37:45;;;;;;;15.40;12.68;;;;;;;;;;6191709;23;20441;-76
2023/05/15 08:40:11;;;;;;;16.60;12.27;;;15.60;99.90;;;;;;6218255;23;20370;-77
2023/05/15 08:42:47;;;;;;;15.43;12.27;;;15.90;99.90;;;;;;6217754;23;20374;-78
2023/05/15 08:45:13;;;;;;;17.30;12.43;;;15.80;99.90;;;;;;6216545;23;20378;-78
2023/05/15 08:47:40;;;;;;;13.88;11.82;;;;;;;;;;6214198;23;20408;-78
2023/05/15 08:50:14;;;;;;;14.57;11.67;;;;;;;;;;6241254;23;20497;-78
2023/05/15 08:52:47;;;;;;;15.15;12.55;;;;;;;;;;6216785;23;20851;-78
2023/05/15 08:55:14;;;;;;;16.88;13.38;;;16.40;99.90;;;;;;6216311;23;20412;-78
2023/05/15 08:57:40;;;;;;;16.02;12.75;;;;;;;;;;6240363;23;20370;-79
2023/05/15 09:00:07;;;;;;;14.93;12.97;;;16.50;99.90;;;;;;6238761;23;21133;-77
2023/05/15 09:02:37;;;;;;;15.38;13.02;;;16.50;99.90;;;;;;6213669;23;20394;-78
2023/05/15 09:05:05;;;;;;;15.68;12.95;;;16.50;99.90;;;;;;6242091;23;20368;-79
2023/05/15 09:07:31;;;;;;;17.98;12.63;;;;;;;;;;6239128;23;20424;-77
2023/05/15 09:09:57;;;;;;;17.60;13.48;;;;;;;;;;6212612;23;20430;-76
2023/05/15 09:12:25;;;;;;;16.25;13.00;;;16.70;99.90;;;;;;6212379;23;20408;-76
2023/05/15 09:14:51;;;;;;;15.10;12.73;;;;;;;;;;6238834;23;20699;-78
2023/05/15 09:17:17;;;;;;;15.48;13.43;;;;;;;;;;6241985;23;20828;-77
2023/05/15 09:19:43;;;;;;;15.85;12.70;;;;;;;;;;6215593;23;20446;-77
2023/05/15 09:22:16;;;;;;;15.07;12.55;;;16.80;99.90;;;;;;6216429;23;20366;-77
2023/05/15 09:24:43;;;;;;;15.80;12.75;;;;;;;;;;6241172;23;20366;-77
2023/05/15 09:27:10;;;;;;;14.25;12.20;;;;;;;;;;6242286;23;20854;-77
2023/05/15 09:29:37;;;;;;;16.60;12.10;;;17.70;99.90;;;;;;6243150;23;20362;-76
2023/05/15 09:32:06;;;;;;;15.13;12.30;;;17.40;99.90;;;;;;6241724;23;20878;-78
2023/05/15 09:34:33;;;;;;;18.20;12.50;;;;;;;;;;6216640;23;20361;-79
2023/05/15 09:37:01;;;;;;;15.68;12.40;;;17.40;99.90;;;;;;6214748;23;20654;-78
2023/05/15 09:39:27;;;;;;;16.88;13.32;;;;;;;;;;6218950;23;20358;-77
2023/05/15 09:41:53;;;;;;;15.80;12.93;;;;;;;;;;6217625;23;20381;-77
2023/05/15 09:44:24;;;;;;;14.98;12.80;;;17.30;99.90;;;;;;6242675;23;20366;-78
2023/05/15 09:46:50;;;;;;;15.25;13.20;;;;;;;;;;6241120;23;20400;-77
2023/05/15 09:49:17;;;;;;;17.47;13.63;;;;;;;;;;6216295;23;20373;-78
2023/05/15 09:51:43;;;;;;;16.45;12.35;;;;;;;;;;6242250;23;20410;-78
2023/05/15 09:54:17;;;;;;;17.30;12.43;;;17.50;99.90;;;;;;6243051;23;20419;-77
2023/05/15 09:56:44;;;;;;;15.13;11.88;;;17.70;99.90;;;;;;6243792;23;20420;-79
2023/05/15 09:59:17;;;;;;;15.23;11.80;;;18.20;99.90;;;;;;6192492;23;20365;-79
2023/05/15 10:01:44;;;;;;;14.50;11.43;;;18.40;99.90;;;;;;6214196;23;20397;-77
2023/05/15 10:04:11;;;;;;;14.65;11.88;;;;;;;;;;6243036;23;20373;-78
2023/05/15 10:06:49;;;;;;;16.23;12.27;;;18.10;99.90;;;;;;6240380;23;20378;-79
2023/05/15 10:09:16;;;;;;;14.80;12.00;;;;;;;;;;6212929;23;20439;-79
2023/05/15 10:11:43;;;;;;;15.45;13.00;;;;;;;;;;6217667;23;20392;-79
2023/05/15 10:14:11;;;;;;;24.85;21.05;;;17.70;99.90;;;;;;6213966;23;20720;-79
2023/05/15 10:16:38;;;;;;;15.57;13.50;;;;;;;;;;6216083;23;20492;-79
2023/05/15 10:19:06;;;;;;;18.43;13.30;;;18.00;99.90;;;;;;6241793;23;20832;-79
2023/05/15 10:21:36;;;;;;;18.60;14.70;;;;;;;;;;6244062;22;20362;-78
2023/05/15 10:24:03;;;;;;;17.23;13.93;;;17.70;99.90;;;;;;6217882;23;20370;-78
2023/05/15 10:26:42;;;;;;;17.02;13.70;;;17.80;99.90;;;;;;6215984;23;20420;-79
2023/05/15 10:29:12;;;;;;;16.53;13.50;;;17.50;99.90;;;;;;6216050;23;20370;-79
2023/05/15 10:31:39;;;;;;;16.30;13.55;;;17.80;99.90;;;;;;6216696;23;20467;-78
2023/05/15 10:34:06;;;;;;;15.68;12.50;;;;;;;;;;6242577;23;20368;-79
2023/05/15 10:36:33;;;;;;;13.33;11.60;;;17.80;99.90;;;;;;6216785;23;20477;-78
2023/05/15 10:39:00;;;;;;;14.93;10.90;;;;;;;;;;6243007;23;20678;-79
2023/05/15 10:41:28;;;;;;;14.00;12.40;;;17.90;99.90;;;;;;6215886;23;20413;-79
2023/05/15 10:43:55;;;;;;;16.60;12.67;;;;;;;;;;6240816;23;20370;-79
2023/05/15 10:46:21;;;;;;;14.40;11.13;;;;;;;;;;6213075;23;20901;-80
2023/05/15 10:48:47;;;;;;;17.40;12.18;;;18.20;99.90;;;;;;6236863;23;20366;-81
2023/05/15 10:51:26;;;;;;;14.85;11.93;;;18.10;99.90;;;;;;6187312;23;20393;-78
2023/05/15 10:53:53;;;;;;;14.98;12.00;;;;;;;;;;6213842;23;20370;-81
2023/05/15 10:56:20;;;;;;;14.73;12.75;;;;;;;;;;6216184;23;20365;-80
2023/05/15 10:58:50;;;;;;;14.13;11.90;;;;;;;;;;6239201;23;20373;-79
2023/05/15 11:01:26;;;;;;;14.25;12.35;;;;;;;;;;6240313;23;20748;-79
2023/05/15 11:04:13;;;;;;;15.57;13.33;;;18.20;99.90;;;;;;6215394;23;20735;-79
2023/05/15 11:06:43;;;;;;;15.00;12.10;;;18.30;99.90;;;;;;6216549;23;20370;-78
2023/05/15 11:09:36;;;;;;;16.75;14.02;;;17.90;99.90;;;;;;6239518;23;20688;-77
2023/05/15 11:12:03;;;;;;;16.23;14.40;;;17.50;99.90;;;;;;6184352;23;20378;-78
2023/05/15 11:14:38;;;;;;;18.35;15.80;;;17.50;99.90;;;;;;6190166;23;20393;-78
2023/05/15 11:17:06;;;;;;;17.05;15.13;;;17.20;99.90;;;;;;6237886;23;20397;-78
2023/05/15 11:19:36;;;;;;;17.20;14.95;;;17.30;99.90;;;;;;6241009;23;20916;-78
2023/05/15 11:22:15;;;;;;;17.40;14.98;;;17.10;99.90;;;;;;6239116;23;20377;-77
2023/05/15 11:25:02;;;;;;;19.08;15.13;;;17.20;99.90;;;;;;6219206;23;20366;-78
2023/05/15 11:27:31;;;;;;;18.38;14.65;;;17.30;99.90;;;;;;6244588;23;20367;-78
2023/05/15 11:30:23;;;;;;;17.92;13.35;;;17.20;99.90;;;;;;6218033;23;20420;-78
2023/05/15 11:32:50;;;;;;;15.95;12.00;;;17.20;99.90;;;;;;6243459;23;20358;-77
2023/05/15 11:35:28;;;;;;;12.75;11.18;;;17.60;99.90;;;;;;6242296;23;20684;-79
2023/05/15 11:37:57;;;;;;;13.00;10.82;;;;;;;;;;6215501;23;20366;-79
2023/05/15 11:40:27;;;;;;;13.32;11.63;;;;;;;;;;6240710;23;20684;-78
2023/05/15 11:43:00;;;;;;;15.48;11.23;;;;;;;;;;6240285;23;20451;-78
2023/05/15 11:45:31;;;;;;;13.13;10.95;;;17.80;99.90;;;;;;6239455;23;20433;-78
2023/05/15 11:48:01;;;;;;;13.60;10.97;;;;;;;;;;6213427;23;20866;-77
2023/05/15 11:50:28;;;;;;;14.13;10.68;;;18.00;99.90;;;;;;6238835;23;20421;-77
2023/05/15 11:52:54;;;;;;;12.57;10.45;;;;;;;;;;6212238;23;20613;-77
2023/05/15 11:55:21;;;;;;;13.73;10.77;;;;;;;;;;6238856;23;21089;-76
2023/05/15 11:57:46;;;;;;;13.38;10.10;;;18.20;99.90;;;;;;6238031;23;20370;-77
2023/05/15 12:00:13;;;;;;;13.40;11.25;;;18.60;99.90;;;;;;6214535;23;20423;-78
2023/05/15 12:02:39;;;;;;;12.23;10.27;;;;;;;;;;6243846;23;20365;-79
2023/05/15 12:05:09;;;;;;;11.53;10.13;;;;;;;;;;6243032;23;20457;-79
2023/05/15 12:07:41;;;;;;;12.10;9.98;;;18.80;99.90;;;;;;6242600;23;20368;-79
2023/05/15 12:10:09;;;;;;;13.55;10.35;;;18.60;99.90;;;;;;6241301;23;20758;-78
2023/05/15 12:12:38;;;;;;;13.98;10.30;;;18.40;99.90;;;;;;6241149;23;20844;-79
2023/05/15 12:15:04;;;;;;;11.98;10.50;;;;;;;;;;6216007;23;20689;-78
2023/05/15 12:17:32;;;;;;;12.48;10.63;;;18.30;99.90;;;;;;6217891;23;20366;-78
2023/05/15 12:19:59;;;;;;;12.68;10.65;;;18.50;99.90;;;;;;6244604;23;20394;-78
2023/05/15 12:22:25;;;;;;;13.00;10.07;;;;;;;;;;6217362;23;20362;-76
2023/05/15 12:24:51;;;;;;;13.65;11.20;;;18.30;99.90;;;;;;6219288;23;20358;-78
2023/05/15 12:27:17;;;;;;;13.63;11.37;;;18.20;99.90;;;;;;6192359;23;20366;-78
2023/05/15 12:29:43;;;;;;;12.82;10.70;;;;;;;;;;6217727;23;20365;-79
2023/05/15 12:32:09;;;;;;;12.63;10.50;;;;;;;;;;6241167;23;21022;-79
2023/05/15 12:34:36;;;;;;;12.60;10.80;;;;;;;;;;6240872;23;20368;-78
2023/05/15 12:37:02;;;;;;;12.47;10.80;;;;;;;;;;6216198;23;20358;-77
2023/05/15 12:39:28;;;;;;;12.25;10.60;;;;;;;;;;6218744;23;20669;-79
2023/05/15 12:41:57;;;;;;;12.38;10.25;;;17.80;99.90;;;;;;6217771;23;20366;-78
2023/05/15 12:44:25;;;;;;;12.30;10.48;;;17.80;99.90;;;;;;6243591;23;20381;-77
2023/05/15 12:46:53;;;;;;;13.02;10.13;;;17.50;99.90;;;;;;6193669;23;20688;-78
2023/05/15 12:49:25;;;;;;;12.23;9.10;;;;;;;;;;6240933;23;20370;-77
2023/05/15 12:51:51;;;;;;;10.75;9.32;;;17.70;99.90;;;;;;6216156;23;20392;-77
2023/05/15 12:54:19;;;;;;;10.70;8.20;;;17.50;99.90;;;;;;6215277;23;20444;-78
2023/05/15 12:56:49;;;;;;;11.55;8.95;;;17.60;99.90;;;;;;6241364;23;20443;-78
2023/05/15 12:59:15;;;;;;;12.57;8.57;;;17.70;99.90;;;;;;6217888;23;20365;-76
2023/05/15 13:01:41;;;;;;;12.57;8.87;;;;;;;;;;6216439;23;20370;-75
2023/05/15 13:04:08;;;;;;;11.83;8.33;;;;;;;;;;6217764;23;20399;-77
2023/05/15 13:06:34;;;;;;;10.40;8.37;;;;;;;;;;6243275;23;20396;-77
2023/05/15 13:09:01;;;;;;;10.35;7.93;;;;;;;;;;6217157;23;20370;-77
2023/05/15 13:11:30;;;;;;;10.87;8.00;;;17.20;99.90;;;;;;6216538;23;20530;-79
2023/05/15 13:13:56;;;;;;;9.88;7.22;;;;;;;;;;6244906;22;20385;-77
2023/05/15 13:16:28;;;;;;;8.85;7.53;;;;;;;;;;6242912;23;20374;-77
2023/05/15 13:18:56;;;;;;;8.60;7.22;;;;;;;;;;6242186;23;20370;-75
2023/05/15 13:21:22;;;;;;;10.15;7.40;;;;;;;;;;6242804;23;20374;-78
2023/05/15 13:23:48;;;;;;;10.55;7.20;;;;;;;;;;6239658;23;20374;-77
2023/05/15 13:26:14;;;;;;;9.82;7.47;;;;;;;;;;6241497;23;20427;-76
2023/05/15 13:28:40;;;;;;;8.77;6.93;;;;;;;;;;6243063;23;20358;-78
2023/05/15 13:31:07;;;;;;;10.27;7.87;;;;;;;;;;6191376;23;20408;-75
2023/05/15 13:33:34;;;;;;;8.90;7.70;;;;;;;;;;6240239;23;20362;-76
2023/05/15 13:36:00;;;;;;;9.68;7.68;;;;;;;;;;6241180;23;20440;-77
2023/05/15 13:38:26;;;;;;;10.10;8.23;;;;;;;;;;6240431;23;20927;-77
2023/05/15 13:40:52;;;;;;;10.43;7.20;;;;;;;;;;6241685;23;20428;-79
2023/05/15 13:43:18;;;;;;;10.00;7.90;;;;;;;;;;6216324;23;20366;-77
2023/05/15 13:45:44;;;;;;;11.40;8.70;;;;;;;;;;6193160;23;20381;-77
2023/05/15 13:48:11;;;;;;;10.95;8.85;;;;;;;;;;6191224;23;20444;-78
2023/05/15 13:50:38;;;;;;;13.20;9.23;;;;;;;;;;6217727;23;20385;-78